sensor_id;sensor_type;location;lat;lon;timestamp;P1;durP1;ratioP1;P2;durP2;ratioP2
12567;SDS011;6349;50.904;6.136;2022-07-21T00:00:55;3.80;;;3.45;;
12567;SDS011;6349;50.904;6.136;2022-07-21T00:02:56;4.15;;;3.85;;
12567;SDS011;6349;50.904;6.136;2022-07-21T00:04:57;3.67;;;3.38;;
12567;SDS011;6349;50.904;6.136;2022-07-21T00:06:58;4.63;;;4.22;;
12567;SDS011;6349;50.904;6.136;2022-07-21T00:08:58;4.43;;;3.85;;
12567;SDS011;6349;50.904;6.136;2022-07-21T00:10:59;5.00;;;4.13;;
12567;SDS011;6349;50.904;6.136;2022-07-21T00:13:00;5.00;;;3.92;;
12567;SDS011;6349;50.904;6.136;2022-07-21T00:15:01;4.32;;;3.80;;
12567;SDS011;6349;50.904;6.136;2022-07-21T00:17:03;3.97;;;3.67;;
12567;SDS011;6349;50.904;6.136;2022-07-21T00:19:03;4.47;;;3.90;;
12567;SDS011;6349;50.904;6.136;2022-07-21T00:21:04;4.47;;;4.07;;
12567;SDS011;6349;50.904;6.136;2022-07-21T00:23:05;4.40;;;4.10;;
12567;SDS011;6349;50.904;6.136;2022-07-21T00:25:06;4.93;;;4.47;;
12567;SDS011;6349;50.904;6.136;2022-07-21T00:27:07;4.55;;;4.15;;
12567;SDS011;6349;50.904;6.136;2022-07-21T00:29:08;5.03;;;4.63;;
12567;SDS011;6349;50.904;6.136;2022-07-21T00:31:08;4.97;;;4.47;;
12567;SDS011;6349;50.904;6.136;2022-07-21T00:33:09;4.95;;;4.55;;
12567;SDS011;6349;50.904;6.136;2022-07-21T00:35:10;5.82;;;4.63;;
12567;SDS011;6349;50.904;6.136;2022-07-21T00:37:12;4.80;;;4.40;;
12567;SDS011;6349;50.904;6.136;2022-07-21T00:39:13;5.10;;;4.60;;
12567;SDS011;6349;50.904;6.136;2022-07-21T00:41:13;5.47;;;4.97;;
12567;SDS011;6349;50.904;6.136;2022-07-21T00:43:14;5.32;;;4.82;;
12567;SDS011;6349;50.904;6.136;2022-07-21T00:45:14;5.20;;;4.80;;
12567;SDS011;6349;50.904;6.136;2022-07-21T00:47:18;5.32;;;4.82;;
12567;SDS011;6349;50.904;6.136;2022-07-21T00:49:22;5.05;;;4.65;;
12567;SDS011;6349;50.904;6.136;2022-07-21T00:51:24;5.13;;;4.60;;
12567;SDS011;6349;50.904;6.136;2022-07-21T00:53:25;5.85;;;5.35;;
12567;SDS011;6349;50.904;6.136;2022-07-21T00:55:26;5.28;;;4.80;;
12567;SDS011;6349;50.904;6.136;2022-07-21T00:57:26;5.82;;;5.32;;
12567;SDS011;6349;50.904;6.136;2022-07-21T00:59:28;5.60;;;5.10;;
12567;SDS011;6349;50.904;6.136;2022-07-21T01:01:29;5.35;;;4.85;;
12567;SDS011;6349;50.904;6.136;2022-07-21T01:03:30;6.25;;;4.85;;
12567;SDS011;6349;50.904;6.136;2022-07-21T01:05:30;5.55;;;5.07;;
12567;SDS011;6349;50.904;6.136;2022-07-21T01:07:31;5.85;;;5.25;;
12567;SDS011;6349;50.904;6.136;2022-07-21T01:09:32;6.57;;;5.90;;
12567;SDS011;6349;50.904;6.136;2022-07-21T01:11:34;5.50;;;5.00;;
12567;SDS011;6349;50.904;6.136;2022-07-21T01:13:35;5.50;;;5.10;;
12567;SDS011;6349;50.904;6.136;2022-07-21T01:15:41;6.00;;;5.40;;
12567;SDS011;6349;50.904;6.136;2022-07-21T01:17:42;6.18;;;5.60;;
12567;SDS011;6349;50.904;6.136;2022-07-21T01:19:44;5.72;;;5.22;;
12567;SDS011;6349;50.904;6.136;2022-07-21T01:21:46;6.00;;;5.50;;
12567;SDS011;6349;50.904;6.136;2022-07-21T01:23:47;6.78;;;6.13;;
12567;SDS011;6349;50.904;6.136;2022-07-21T01:25:49;6.28;;;5.63;;
12567;SDS011;6349;50.904;6.136;2022-07-21T01:27:50;6.30;;;5.70;;
12567;SDS011;6349;50.904;6.136;2022-07-21T01:29:51;5.72;;;5.22;;
12567;SDS011;6349;50.904;6.136;2022-07-21T01:31:52;6.35;;;5.75;;
12567;SDS011;6349;50.904;6.136;2022-07-21T01:33:52;6.05;;;5.40;;
12567;SDS011;6349;50.904;6.136;2022-07-21T01:35:53;6.25;;;5.75;;
12567;SDS011;6349;50.904;6.136;2022-07-21T01:37:54;6.10;;;5.50;;
12567;SDS011;6349;50.904;6.136;2022-07-21T01:39:55;6.22;;;5.72;;
12567;SDS011;6349;50.904;6.136;2022-07-21T01:42:14;6.30;;;5.75;;
12567;SDS011;6349;50.904;6.136;2022-07-21T01:44:15;6.00;;;5.40;;
12567;SDS011;6349;50.904;6.136;2022-07-21T01:46:16;6.25;;;5.65;;
12567;SDS011;6349;50.904;6.136;2022-07-21T01:48:16;5.57;;;5.18;;
12567;SDS011;6349;50.904;6.136;2022-07-21T01:50:17;5.90;;;5.40;;
12567;SDS011;6349;50.904;6.136;2022-07-21T01:52:21;5.50;;;5.00;;
12567;SDS011;6349;50.904;6.136;2022-07-21T01:54:21;5.97;;;5.47;;
12567;SDS011;6349;50.904;6.136;2022-07-21T01:56:23;5.80;;;5.32;;
12567;SDS011;6349;50.904;6.136;2022-07-21T01:58:24;5.85;;;5.43;;
12567;SDS011;6349;50.904;6.136;2022-07-21T02:00:25;6.65;;;6.00;;
12567;SDS011;6349;50.904;6.136;2022-07-21T02:02:25;6.68;;;5.95;;
12567;SDS011;6349;50.904;6.136;2022-07-21T02:04:26;6.38;;;5.85;;
12567;SDS011;6349;50.904;6.136;2022-07-21T02:06:27;6.13;;;5.53;;
12567;SDS011;6349;50.904;6.136;2022-07-21T02:08:28;5.93;;;5.32;;
12567;SDS011;6349;50.904;6.136;2022-07-21T02:10:29;5.50;;;5.00;;
12567;SDS011;6349;50.904;6.136;2022-07-21T02:12:30;5.00;;;4.60;;
12567;SDS011;6349;50.904;6.136;2022-07-21T02:14:31;5.30;;;4.90;;
12567;SDS011;6349;50.904;6.136;2022-07-21T02:16:31;4.93;;;4.53;;
12567;SDS011;6349;50.904;6.136;2022-07-21T02:18:32;4.93;;;4.53;;
12567;SDS011;6349;50.904;6.136;2022-07-21T02:20:34;4.45;;;4.10;;
12567;SDS011;6349;50.904;6.136;2022-07-21T02:22:34;4.70;;;4.30;;
12567;SDS011;6349;50.904;6.136;2022-07-21T02:24:35;5.13;;;4.72;;
12567;SDS011;6349;50.904;6.136;2022-07-21T02:26:36;5.03;;;4.63;;
12567;SDS011;6349;50.904;6.136;2022-07-21T02:28:36;5.18;;;4.68;;
12567;SDS011;6349;50.904;6.136;2022-07-21T02:30:37;5.30;;;4.90;;
12567;SDS011;6349;50.904;6.136;2022-07-21T02:32:38;5.70;;;5.13;;
12567;SDS011;6349;50.904;6.136;2022-07-21T02:34:39;5.80;;;5.30;;
12567;SDS011;6349;50.904;6.136;2022-07-21T02:36:40;5.35;;;4.85;;
12567;SDS011;6349;50.904;6.136;2022-07-21T02:38:40;5.38;;;4.85;;
12567;SDS011;6349;50.904;6.136;2022-07-21T02:40:41;5.90;;;5.30;;
12567;SDS011;6349;50.904;6.136;2022-07-21T02:42:41;5.80;;;5.30;;
12567;SDS011;6349;50.904;6.136;2022-07-21T02:44:42;5.10;;;4.72;;
12567;SDS011;6349;50.904;6.136;2022-07-21T02:46:43;5.85;;;5.35;;
12567;SDS011;6349;50.904;6.136;2022-07-21T02:48:43;6.30;;;5.40;;
12567;SDS011;6349;50.904;6.136;2022-07-21T02:50:44;5.55;;;5.05;;
12567;SDS011;6349;50.904;6.136;2022-07-21T02:52:45;5.72;;;5.22;;
12567;SDS011;6349;50.904;6.136;2022-07-21T02:54:46;5.90;;;5.40;;
12567;SDS011;6349;50.904;6.136;2022-07-21T02:56:46;6.30;;;5.72;;
12567;SDS011;6349;50.904;6.136;2022-07-21T02:58:47;5.88;;;5.00;;
12567;SDS011;6349;50.904;6.136;2022-07-21T03:00:48;5.93;;;5.35;;
12567;SDS011;6349;50.904;6.136;2022-07-21T03:02:52;5.55;;;5.15;;
12567;SDS011;6349;50.904;6.136;2022-07-21T03:04:53;6.00;;;5.47;;
12567;SDS011;6349;50.904;6.136;2022-07-21T03:06:53;6.45;;;5.80;;
12567;SDS011;6349;50.904;6.136;2022-07-21T03:08:54;5.32;;;4.93;;
12567;SDS011;6349;50.904;6.136;2022-07-21T03:10:55;6.10;;;5.60;;
12567;SDS011;6349;50.904;6.136;2022-07-21T03:12:55;5.63;;;5.22;;
12567;SDS011;6349;50.904;6.136;2022-07-21T03:14:56;5.50;;;5.10;;
12567;SDS011;6349;50.904;6.136;2022-07-21T03:16:57;5.88;;;5.43;;
12567;SDS011;6349;50.904;6.136;2022-07-21T03:18:58;5.63;;;5.13;;
12567;SDS011;6349;50.904;6.136;2022-07-21T03:20:58;6.40;;;5.80;;
12567;SDS011;6349;50.904;6.136;2022-07-21T03:23:00;6.78;;;6.25;;
12567;SDS011;6349;50.904;6.136;2022-07-21T03:25:01;6.13;;;5.63;;
12567;SDS011;6349;50.904;6.136;2022-07-21T03:27:02;7.32;;;6.63;;
12567;SDS011;6349;50.904;6.136;2022-07-21T03:29:03;7.10;;;6.50;;
12567;SDS011;6349;50.904;6.136;2022-07-21T03:31:04;6.57;;;6.00;;
12567;SDS011;6349;50.904;6.136;2022-07-21T03:33:04;7.03;;;6.40;;
12567;SDS011;6349;50.904;6.136;2022-07-21T03:35:06;8.10;;;6.30;;
12567;SDS011;6349;50.904;6.136;2022-07-21T03:37:08;7.30;;;6.70;;
12567;SDS011;6349;50.904;6.136;2022-07-21T03:39:09;7.80;;;7.10;;
12567;SDS011;6349;50.904;6.136;2022-07-21T03:41:09;8.23;;;7.43;;
12567;SDS011;6349;50.904;6.136;2022-07-21T03:43:10;8.55;;;7.75;;
12567;SDS011;6349;50.904;6.136;2022-07-21T03:45:11;7.55;;;6.85;;
12567;SDS011;6349;50.904;6.136;2022-07-21T03:47:11;7.00;;;6.40;;
12567;SDS011;6349;50.904;6.136;2022-07-21T03:49:12;7.63;;;6.88;;
12567;SDS011;6349;50.904;6.136;2022-07-21T03:51:12;7.75;;;7.05;;
12567;SDS011;6349;50.904;6.136;2022-07-21T03:53:13;8.27;;;7.57;;
12567;SDS011;6349;50.904;6.136;2022-07-21T03:55:14;8.30;;;7.60;;
12567;SDS011;6349;50.904;6.136;2022-07-21T03:57:17;8.60;;;7.90;;
12567;SDS011;6349;50.904;6.136;2022-07-21T03:59:17;8.45;;;7.65;;
12567;SDS011;6349;50.904;6.136;2022-07-21T04:01:18;8.10;;;7.22;;
12567;SDS011;6349;50.904;6.136;2022-07-21T04:03:19;8.65;;;7.88;;
12567;SDS011;6349;50.904;6.136;2022-07-21T04:05:19;9.05;;;7.65;;
12567;SDS011;6349;50.904;6.136;2022-07-21T04:07:20;8.80;;;8.10;;
12567;SDS011;6349;50.904;6.136;2022-07-21T04:09:21;8.57;;;7.78;;
12567;SDS011;6349;50.904;6.136;2022-07-21T04:11:21;7.90;;;7.28;;
12567;SDS011;6349;50.904;6.136;2022-07-21T04:13:22;8.05;;;7.35;;
12567;SDS011;6349;50.904;6.136;2022-07-21T04:15:23;8.38;;;7.68;;
12567;SDS011;6349;50.904;6.136;2022-07-21T04:17:24;8.18;;;7.53;;
12567;SDS011;6349;50.904;6.136;2022-07-21T04:19:24;8.48;;;7.68;;
12567;SDS011;6349;50.904;6.136;2022-07-21T04:21:25;9.25;;;8.45;;
12567;SDS011;6349;50.904;6.136;2022-07-21T04:23:25;8.40;;;7.70;;
12567;SDS011;6349;50.904;6.136;2022-07-21T04:25:26;9.02;;;8.23;;
12567;SDS011;6349;50.904;6.136;2022-07-21T04:27:27;8.63;;;7.93;;
12567;SDS011;6349;50.904;6.136;2022-07-21T04:29:28;8.40;;;7.70;;
12567;SDS011;6349;50.904;6.136;2022-07-21T04:31:28;8.25;;;7.45;;
12567;SDS011;6349;50.904;6.136;2022-07-21T04:33:29;8.48;;;7.68;;
12567;SDS011;6349;50.904;6.136;2022-07-21T04:35:30;8.10;;;7.40;;
12567;SDS011;6349;50.904;6.136;2022-07-21T04:37:30;8.05;;;7.43;;
12567;SDS011;6349;50.904;6.136;2022-07-21T04:39:31;7.78;;;7.15;;
12567;SDS011;6349;50.904;6.136;2022-07-21T04:41:32;8.25;;;7.55;;
12567;SDS011;6349;50.904;6.136;2022-07-21T04:43:33;8.18;;;7.38;;
12567;SDS011;6349;50.904;6.136;2022-07-21T04:45:33;7.70;;;7.10;;
12567;SDS011;6349;50.904;6.136;2022-07-21T04:47:41;8.77;;;7.97;;
12567;SDS011;6349;50.904;6.136;2022-07-21T04:49:52;7.57;;;6.90;;
12567;SDS011;6349;50.904;6.136;2022-07-21T04:51:53;7.68;;;6.97;;
12567;SDS011;6349;50.904;6.136;2022-07-21T04:53:53;7.03;;;6.43;;
12567;SDS011;6349;50.904;6.136;2022-07-21T04:55:54;7.80;;;7.05;;
12567;SDS011;6349;50.904;6.136;2022-07-21T04:57:54;7.75;;;7.05;;
12567;SDS011;6349;50.904;6.136;2022-07-21T04:59:57;8.57;;;7.78;;
12567;SDS011;6349;50.904;6.136;2022-07-21T05:01:58;8.07;;;7.28;;
12567;SDS011;6349;50.904;6.136;2022-07-21T05:03:59;7.97;;;7.18;;
12567;SDS011;6349;50.904;6.136;2022-07-21T05:05:59;8.25;;;7.45;;
12567;SDS011;6349;50.904;6.136;2022-07-21T05:08:00;8.38;;;7.68;;
12567;SDS011;6349;50.904;6.136;2022-07-21T05:10:04;8.30;;;7.50;;
12567;SDS011;6349;50.904;6.136;2022-07-21T05:12:06;8.20;;;7.53;;
12567;SDS011;6349;50.904;6.136;2022-07-21T05:14:07;8.32;;;7.50;;
12567;SDS011;6349;50.904;6.136;2022-07-21T05:16:08;8.00;;;7.20;;
12567;SDS011;6349;50.904;6.136;2022-07-21T05:18:08;8.50;;;7.72;;
12567;SDS011;6349;50.904;6.136;2022-07-21T05:20:09;8.18;;;7.38;;
12567;SDS011;6349;50.904;6.136;2022-07-21T05:22:11;8.02;;;7.32;;
12567;SDS011;6349;50.904;6.136;2022-07-21T05:24:11;7.97;;;7.20;;
12567;SDS011;6349;50.904;6.136;2022-07-21T05:26:12;6.90;;;6.32;;
12567;SDS011;6349;50.904;6.136;2022-07-21T05:28:13;8.10;;;7.30;;
12567;SDS011;6349;50.904;6.136;2022-07-21T05:30:13;7.15;;;6.55;;
12567;SDS011;6349;50.904;6.136;2022-07-21T05:32:14;8.10;;;7.35;;
12567;SDS011;6349;50.904;6.136;2022-07-21T05:34:15;7.50;;;6.88;;
12567;SDS011;6349;50.904;6.136;2022-07-21T05:36:15;7.13;;;6.53;;
12567;SDS011;6349;50.904;6.136;2022-07-21T05:38:18;8.10;;;7.30;;
12567;SDS011;6349;50.904;6.136;2022-07-21T05:40:18;7.68;;;7.07;;
12567;SDS011;6349;50.904;6.136;2022-07-21T05:42:19;7.90;;;7.20;;
12567;SDS011;6349;50.904;6.136;2022-07-21T05:44:20;7.43;;;6.82;;
12567;SDS011;6349;50.904;6.136;2022-07-21T05:46:20;7.53;;;6.82;;
12567;SDS011;6349;50.904;6.136;2022-07-21T05:48:21;7.75;;;7.05;;
12567;SDS011;6349;50.904;6.136;2022-07-21T05:50:21;7.75;;;7.03;;
12567;SDS011;6349;50.904;6.136;2022-07-21T05:52:22;7.35;;;6.75;;
12567;SDS011;6349;50.904;6.136;2022-07-21T05:54:23;7.18;;;6.57;;
12567;SDS011;6349;50.904;6.136;2022-07-21T05:56:23;6.90;;;6.20;;
12567;SDS011;6349;50.904;6.136;2022-07-21T05:58:24;6.68;;;6.15;;
12567;SDS011;6349;50.904;6.136;2022-07-21T06:00:25;6.88;;;6.20;;
12567;SDS011;6349;50.904;6.136;2022-07-21T06:02:26;6.80;;;6.10;;
12567;SDS011;6349;50.904;6.136;2022-07-21T06:04:29;6.35;;;5.63;;
12567;SDS011;6349;50.904;6.136;2022-07-21T06:06:30;7.32;;;5.75;;
12567;SDS011;6349;50.904;6.136;2022-07-21T06:08:30;6.00;;;5.50;;
12567;SDS011;6349;50.904;6.136;2022-07-21T06:10:31;7.95;;;5.80;;
12567;SDS011;6349;50.904;6.136;2022-07-21T06:12:32;7.00;;;5.72;;
12567;SDS011;6349;50.904;6.136;2022-07-21T06:14:33;6.30;;;5.63;;
12567;SDS011;6349;50.904;6.136;2022-07-21T06:16:34;6.07;;;5.55;;
12567;SDS011;6349;50.904;6.136;2022-07-21T06:18:34;6.78;;;5.78;;
12567;SDS011;6349;50.904;6.136;2022-07-21T06:20:35;6.95;;;5.40;;
12567;SDS011;6349;50.904;6.136;2022-07-21T06:22:36;7.32;;;5.10;;
12567;SDS011;6349;50.904;6.136;2022-07-21T06:24:37;6.28;;;5.15;;
12567;SDS011;6349;50.904;6.136;2022-07-21T06:26:37;6.90;;;5.65;;
12567;SDS011;6349;50.904;6.136;2022-07-21T06:28:41;6.50;;;5.65;;
12567;SDS011;6349;50.904;6.136;2022-07-21T06:30:41;6.22;;;5.72;;
12567;SDS011;6349;50.904;6.136;2022-07-21T06:32:42;6.40;;;5.80;;
12567;SDS011;6349;50.904;6.136;2022-07-21T06:34:42;8.48;;;5.47;;
12567;SDS011;6349;50.904;6.136;2022-07-21T06:36:43;6.88;;;6.15;;
12567;SDS011;6349;50.904;6.136;2022-07-21T06:38:44;6.45;;;5.68;;
12567;SDS011;6349;50.904;6.136;2022-07-21T06:40:44;7.72;;;6.28;;
12567;SDS011;6349;50.904;6.136;2022-07-21T06:42:45;7.45;;;6.40;;
12567;SDS011;6349;50.904;6.136;2022-07-21T06:44:46;6.57;;;5.82;;
12567;SDS011;6349;50.904;6.136;2022-07-21T06:46:46;6.50;;;5.70;;
12567;SDS011;6349;50.904;6.136;2022-07-21T06:48:48;7.50;;;5.05;;
12567;SDS011;6349;50.904;6.136;2022-07-21T06:50:49;5.85;;;5.35;;
12567;SDS011;6349;50.904;6.136;2022-07-21T06:52:49;6.68;;;6.03;;
12567;SDS011;6349;50.904;6.136;2022-07-21T06:54:50;7.43;;;5.80;;
12567;SDS011;6349;50.904;6.136;2022-07-21T06:56:51;5.93;;;5.43;;
12567;SDS011;6349;50.904;6.136;2022-07-21T06:58:51;7.00;;;5.90;;
12567;SDS011;6349;50.904;6.136;2022-07-21T07:00:52;6.65;;;5.95;;
12567;SDS011;6349;50.904;6.136;2022-07-21T07:02:53;6.40;;;5.88;;
12567;SDS011;6349;50.904;6.136;2022-07-21T07:04:53;8.25;;;6.32;;
12567;SDS011;6349;50.904;6.136;2022-07-21T07:06:54;8.88;;;6.70;;
12567;SDS011;6349;50.904;6.136;2022-07-21T07:08:55;7.30;;;6.70;;
12567;SDS011;6349;50.904;6.136;2022-07-21T07:10:56;7.53;;;6.78;;
12567;SDS011;6349;50.904;6.136;2022-07-21T07:12:56;7.85;;;7.07;;
12567;SDS011;6349;50.904;6.136;2022-07-21T07:14:57;8.68;;;6.95;;
12567;SDS011;6349;50.904;6.136;2022-07-21T07:16:58;7.80;;;7.10;;
12567;SDS011;6349;50.904;6.136;2022-07-21T07:18:59;7.90;;;7.10;;
12567;SDS011;6349;50.904;6.136;2022-07-21T07:21:00;8.80;;;7.18;;
12567;SDS011;6349;50.904;6.136;2022-07-21T07:23:01;7.80;;;7.20;;
12567;SDS011;6349;50.904;6.136;2022-07-21T07:25:02;9.02;;;8.13;;
12567;SDS011;6349;50.904;6.136;2022-07-21T07:27:03;8.20;;;7.43;;
12567;SDS011;6349;50.904;6.136;2022-07-21T07:29:04;8.05;;;7.25;;
12567;SDS011;6349;50.904;6.136;2022-07-21T07:31:04;10.07;;;7.10;;
12567;SDS011;6349;50.904;6.136;2022-07-21T07:33:05;29.55;;;9.55;;
12567;SDS011;6349;50.904;6.136;2022-07-21T07:35:07;18.95;;;8.60;;
12567;SDS011;6349;50.904;6.136;2022-07-21T07:37:09;9.32;;;7.13;;
12567;SDS011;6349;50.904;6.136;2022-07-21T07:39:10;11.27;;;7.78;;
12567;SDS011;6349;50.904;6.136;2022-07-21T07:41:11;8.88;;;7.95;;
12567;SDS011;6349;50.904;6.136;2022-07-21T07:43:12;10.07;;;8.80;;
12567;SDS011;6349;50.904;6.136;2022-07-21T07:45:13;9.85;;;8.82;;
12567;SDS011;6349;50.904;6.136;2022-07-21T07:47:14;10.25;;;9.23;;
12567;SDS011;6349;50.904;6.136;2022-07-21T07:49:14;9.80;;;8.82;;
12567;SDS011;6349;50.904;6.136;2022-07-21T07:51:15;10.23;;;8.57;;
12567;SDS011;6349;50.904;6.136;2022-07-21T07:53:16;10.50;;;8.52;;
12567;SDS011;6349;50.904;6.136;2022-07-21T07:55:16;9.80;;;8.80;;
12567;SDS011;6349;50.904;6.136;2022-07-21T07:57:17;9.98;;;9.07;;
12567;SDS011;6349;50.904;6.136;2022-07-21T07:59:17;9.73;;;8.70;;
12567;SDS011;6349;50.904;6.136;2022-07-21T08:01:18;11.50;;;8.90;;
12567;SDS011;6349;50.904;6.136;2022-07-21T08:03:20;9.15;;;8.30;;
12567;SDS011;6349;50.904;6.136;2022-07-21T08:05:21;9.02;;;8.23;;
12567;SDS011;6349;50.904;6.136;2022-07-21T08:07:21;8.55;;;7.68;;
12567;SDS011;6349;50.904;6.136;2022-07-21T08:09:22;9.43;;;7.35;;
12567;SDS011;6349;50.904;6.136;2022-07-21T08:11:23;7.90;;;7.20;;
12567;SDS011;6349;50.904;6.136;2022-07-21T08:13:24;7.78;;;6.88;;
12567;SDS011;6349;50.904;6.136;2022-07-21T08:15:25;9.80;;;7.10;;
12567;SDS011;6349;50.904;6.136;2022-07-21T08:17:26;10.73;;;7.25;;
12567;SDS011;6349;50.904;6.136;2022-07-21T08:19:26;8.00;;;7.18;;
12567;SDS011;6349;50.904;6.136;2022-07-21T08:21:27;7.97;;;7.18;;
12567;SDS011;6349;50.904;6.136;2022-07-21T08:23:30;9.82;;;7.38;;
12567;SDS011;6349;50.904;6.136;2022-07-21T08:25:31;7.05;;;6.35;;
12567;SDS011;6349;50.904;6.136;2022-07-21T08:27:32;7.60;;;6.80;;
12567;SDS011;6349;50.904;6.136;2022-07-21T08:29:33;7.68;;;6.85;;
12567;SDS011;6349;50.904;6.136;2022-07-21T08:31:33;8.63;;;6.70;;
12567;SDS011;6349;50.904;6.136;2022-07-21T08:33:34;7.28;;;6.57;;
12567;SDS011;6349;50.904;6.136;2022-07-21T08:35:35;7.90;;;6.50;;
12567;SDS011;6349;50.904;6.136;2022-07-21T08:37:36;6.32;;;5.63;;
12567;SDS011;6349;50.904;6.136;2022-07-21T08:39:37;6.50;;;5.90;;
12567;SDS011;6349;50.904;6.136;2022-07-21T08:41:38;6.45;;;5.85;;
12567;SDS011;6349;50.904;6.136;2022-07-21T08:43:40;6.80;;;5.50;;
12567;SDS011;6349;50.904;6.136;2022-07-21T08:45:41;6.68;;;5.38;;
12567;SDS011;6349;50.904;6.136;2022-07-21T08:47:42;6.20;;;5.60;;
12567;SDS011;6349;50.904;6.136;2022-07-21T08:49:43;6.50;;;5.82;;
12567;SDS011;6349;50.904;6.136;2022-07-21T08:51:46;6.32;;;5.47;;
12567;SDS011;6349;50.904;6.136;2022-07-21T08:53:47;6.60;;;5.60;;
12567;SDS011;6349;50.904;6.136;2022-07-21T08:55:48;6.25;;;5.43;;
12567;SDS011;6349;50.904;6.136;2022-07-21T08:57:49;6.03;;;5.43;;
12567;SDS011;6349;50.904;6.136;2022-07-21T08:59:50;8.25;;;6.05;;
12567;SDS011;6349;50.904;6.136;2022-07-21T09:01:50;7.20;;;5.85;;
12567;SDS011;6349;50.904;6.136;2022-07-21T09:03:51;5.97;;;5.47;;
12567;SDS011;6349;50.904;6.136;2022-07-21T09:05:59;7.60;;;6.30;;
12567;SDS011;6349;50.904;6.136;2022-07-21T09:08:00;8.50;;;7.03;;
12567;SDS011;6349;50.904;6.136;2022-07-21T09:10:02;7.68;;;5.85;;
12567;SDS011;6349;50.904;6.136;2022-07-21T09:12:03;7.30;;;6.35;;
12567;SDS011;6349;50.904;6.136;2022-07-21T09:14:07;7.55;;;6.13;;
12567;SDS011;6349;50.904;6.136;2022-07-21T09:16:34;7.78;;;7.07;;
12567;SDS011;6349;50.904;6.136;2022-07-21T09:18:55;7.35;;;6.55;;
12567;SDS011;6349;50.904;6.136;2022-07-21T09:20:56;7.70;;;7.00;;
12567;SDS011;6349;50.904;6.136;2022-07-21T09:23:06;9.15;;;7.80;;
12567;SDS011;6349;50.904;6.136;2022-07-21T09:25:13;10.23;;;8.40;;
12567;SDS011;6349;50.904;6.136;2022-07-21T09:27:36;10.25;;;8.73;;
12567;SDS011;6349;50.904;6.136;2022-07-21T09:29:46;10.07;;;8.88;;
12567;SDS011;6349;50.904;6.136;2022-07-21T09:31:47;9.88;;;8.88;;
12567;SDS011;6349;50.904;6.136;2022-07-21T09:33:48;10.05;;;9.00;;
12567;SDS011;6349;50.904;6.136;2022-07-21T09:35:55;10.95;;;9.85;;
12567;SDS011;6349;50.904;6.136;2022-07-21T09:37:57;10.15;;;9.13;;
12567;SDS011;6349;50.904;6.136;2022-07-21T09:40:11;10.45;;;9.35;;
12567;SDS011;6349;50.904;6.136;2022-07-21T09:42:14;9.90;;;8.95;;
12567;SDS011;6349;50.904;6.136;2022-07-21T09:44:22;9.90;;;9.00;;
12567;SDS011;6349;50.904;6.136;2022-07-21T09:46:30;10.05;;;9.15;;
12567;SDS011;6349;50.904;6.136;2022-07-21T09:48:32;10.35;;;9.30;;
12567;SDS011;6349;50.904;6.136;2022-07-21T09:50:37;9.68;;;8.77;;
12567;SDS011;6349;50.904;6.136;2022-07-21T09:52:41;8.82;;;8.02;;
12567;SDS011;6349;50.904;6.136;2022-07-21T09:54:44;8.90;;;8.10;;
12567;SDS011;6349;50.904;6.136;2022-07-21T09:56:45;8.13;;;7.43;;
12567;SDS011;6349;50.904;6.136;2022-07-21T09:58:49;9.07;;;8.10;;
12567;SDS011;6349;50.904;6.136;2022-07-21T10:00:51;8.18;;;7.47;;
12567;SDS011;6349;50.904;6.136;2022-07-21T10:02:53;8.40;;;7.47;;
12567;SDS011;6349;50.904;6.136;2022-07-21T10:04:58;8.50;;;7.70;;
12567;SDS011;6349;50.904;6.136;2022-07-21T10:07:03;10.43;;;8.52;;
12567;SDS011;6349;50.904;6.136;2022-07-21T10:09:04;9.15;;;8.35;;
12567;SDS011;6349;50.904;6.136;2022-07-21T10:11:07;10.15;;;8.35;;
12567;SDS011;6349;50.904;6.136;2022-07-21T10:13:08;9.05;;;8.15;;
12567;SDS011;6349;50.904;6.136;2022-07-21T10:15:09;10.20;;;9.20;;
12567;SDS011;6349;50.904;6.136;2022-07-21T10:17:10;9.20;;;8.00;;
12567;SDS011;6349;50.904;6.136;2022-07-21T10:21:49;10.07;;;9.15;;
12567;SDS011;6349;50.904;6.136;2022-07-21T10:24:01;10.75;;;8.82;;
12567;SDS011;6349;50.904;6.136;2022-07-21T10:26:03;9.10;;;8.20;;
12567;SDS011;6349;50.904;6.136;2022-07-21T10:30:18;8.70;;;7.82;;
12567;SDS011;6349;50.904;6.136;2022-07-21T10:32:48;8.63;;;7.85;;
12567;SDS011;6349;50.904;6.136;2022-07-21T10:34:50;8.30;;;7.50;;
12567;SDS011;6349;50.904;6.136;2022-07-21T10:36:51;8.02;;;7.32;;
12567;SDS011;6349;50.904;6.136;2022-07-21T10:41:13;7.97;;;7.15;;
12567;SDS011;6349;50.904;6.136;2022-07-21T10:43:44;6.50;;;6.00;;
12567;SDS011;6349;50.904;6.136;2022-07-21T10:45:45;6.60;;;6.00;;
12567;SDS011;6349;50.904;6.136;2022-07-21T10:47:45;7.25;;;6.55;;
12567;SDS011;6349;50.904;6.136;2022-07-21T10:50:01;6.53;;;5.95;;
12567;SDS011;6349;50.904;6.136;2022-07-21T10:54:41;6.70;;;6.07;;
12567;SDS011;6349;50.904;6.136;2022-07-21T10:57:26;7.00;;;6.40;;
12567;SDS011;6349;50.904;6.136;2022-07-21T10:59:27;7.07;;;6.47;;
12567;SDS011;6349;50.904;6.136;2022-07-21T11:02:25;7.30;;;6.70;;
12567;SDS011;6349;50.904;6.136;2022-07-21T11:04:28;7.93;;;7.13;;
12567;SDS011;6349;50.904;6.136;2022-07-21T11:06:28;7.50;;;6.93;;
12567;SDS011;6349;50.904;6.136;2022-07-21T11:10:45;7.43;;;6.72;;
12567;SDS011;6349;50.904;6.136;2022-07-21T11:12:56;7.65;;;6.95;;
12567;SDS011;6349;50.904;6.136;2022-07-21T11:14:57;6.97;;;6.38;;
12567;SDS011;6349;50.904;6.136;2022-07-21T11:16:58;8.23;;;7.53;;
12567;SDS011;6349;50.904;6.136;2022-07-21T11:19:02;7.50;;;6.80;;
12567;SDS011;6349;50.904;6.136;2022-07-21T11:23:06;8.10;;;7.30;;
12567;SDS011;6349;50.904;6.136;2022-07-21T11:25:07;7.95;;;7.35;;
12567;SDS011;6349;50.904;6.136;2022-07-21T11:27:12;8.05;;;7.35;;
12567;SDS011;6349;50.904;6.136;2022-07-21T11:29:17;8.10;;;7.40;;
12567;SDS011;6349;50.904;6.136;2022-07-21T11:31:18;8.35;;;7.65;;
12567;SDS011;6349;50.904;6.136;2022-07-21T11:33:24;9.10;;;8.25;;
12567;SDS011;6349;50.904;6.136;2022-07-21T11:35:25;8.55;;;7.85;;
12567;SDS011;6349;50.904;6.136;2022-07-21T11:37:27;8.10;;;7.50;;
12567;SDS011;6349;50.904;6.136;2022-07-21T11:39:36;8.32;;;7.63;;
12567;SDS011;6349;50.904;6.136;2022-07-21T11:41:37;8.63;;;7.93;;
12567;SDS011;6349;50.904;6.136;2022-07-21T11:43:40;9.82;;;8.95;;
12567;SDS011;6349;50.904;6.136;2022-07-21T11:45:51;9.73;;;8.82;;
12567;SDS011;6349;50.904;6.136;2022-07-21T11:47:52;9.88;;;8.98;;
12567;SDS011;6349;50.904;6.136;2022-07-21T11:49:53;8.88;;;8.13;;
12567;SDS011;6349;50.904;6.136;2022-07-21T11:51:56;8.65;;;7.95;;
12567;SDS011;6349;50.904;6.136;2022-07-21T11:53:59;8.98;;;8.18;;
12567;SDS011;6349;50.904;6.136;2022-07-21T11:56:00;8.70;;;7.93;;
12567;SDS011;6349;50.904;6.136;2022-07-21T11:58:01;9.45;;;8.75;;
12567;SDS011;6349;50.904;6.136;2022-07-21T12:00:02;9.90;;;8.90;;
12567;SDS011;6349;50.904;6.136;2022-07-21T12:02:10;9.18;;;8.38;;
12567;SDS011;6349;50.904;6.136;2022-07-21T12:04:12;10.10;;;9.10;;
12567;SDS011;6349;50.904;6.136;2022-07-21T12:06:13;9.35;;;8.63;;
12567;SDS011;6349;50.904;6.136;2022-07-21T12:08:14;9.75;;;8.85;;
12567;SDS011;6349;50.904;6.136;2022-07-21T12:10:22;9.23;;;8.43;;
12567;SDS011;6349;50.904;6.136;2022-07-21T12:12:31;10.00;;;9.10;;
12567;SDS011;6349;50.904;6.136;2022-07-21T12:14:44;10.32;;;9.52;;
12567;SDS011;6349;50.904;6.136;2022-07-21T12:16:50;9.68;;;8.88;;
12567;SDS011;6349;50.904;6.136;2022-07-21T12:19:24;8.70;;;7.88;;
12567;SDS011;6349;50.904;6.136;2022-07-21T12:21:18;6.18;;;5.70;;
12567;SDS011;6349;50.904;6.136;2022-07-21T12:23:23;5.50;;;5.00;;
12567;SDS011;6349;50.904;6.136;2022-07-21T12:25:38;4.90;;;4.50;;
12567;SDS011;6349;50.904;6.136;2022-07-21T12:27:40;5.32;;;4.80;;
12567;SDS011;6349;50.904;6.136;2022-07-21T12:29:42;4.75;;;4.35;;
12567;SDS011;6349;50.904;6.136;2022-07-21T12:31:43;4.50;;;4.20;;
12567;SDS011;6349;50.904;6.136;2022-07-21T12:33:43;5.05;;;4.55;;
12567;SDS011;6349;50.904;6.136;2022-07-21T12:35:45;4.88;;;4.47;;
12567;SDS011;6349;50.904;6.136;2022-07-21T12:40:02;5.20;;;4.70;;
12567;SDS011;6349;50.904;6.136;2022-07-21T12:42:04;5.70;;;5.20;;
12567;SDS011;6349;50.904;6.136;2022-07-21T12:44:07;5.40;;;4.90;;